createdAt,value
2023-05-09T00:01:27.597Z,7.00
2023-05-09T00:03:54.580Z,6.85
2023-05-09T00:06:21.701Z,6.88
2023-05-09T00:08:48.632Z,6.85
2023-05-09T00:11:15.616Z,7.40
2023-05-09T00:13:44.138Z,7.22
2023-05-09T00:16:11.572Z,7.30
2023-05-09T00:18:42.283Z,6.10
2023-05-09T00:21:10.950Z,6.85
2023-05-09T00:23:38.553Z,6.60
2023-05-09T00:26:05.617Z,6.47
2023-05-09T00:28:33.149Z,7.05
2023-05-09T00:31:00.272Z,7.82
2023-05-09T00:33:27.387Z,6.90
2023-05-09T00:35:55.237Z,7.07
2023-05-09T00:38:25.158Z,7.25
2023-05-09T00:40:52.294Z,7.07
2023-05-09T00:43:19.260Z,6.68
2023-05-09T00:45:46.466Z,6.90
2023-05-09T00:48:15.275Z,7.00
2023-05-09T00:50:42.864Z,6.00
2023-05-09T00:53:10.278Z,6.20
2023-05-09T00:55:37.591Z,6.43
2023-05-09T00:58:05.043Z,6.22
2023-05-09T01:00:32.277Z,6.38
2023-05-09T01:02:59.306Z,6.72
2023-05-09T01:05:48.479Z,6.68
2023-05-09T01:08:27.874Z,7.18
2023-05-09T01:11:01.013Z,6.32
2023-05-09T01:13:38.234Z,6.85
2023-05-09T01:16:32.167Z,6.63
2023-05-09T01:19:09.147Z,7.10
2023-05-09T01:21:38.839Z,6.15
2023-05-09T01:24:05.996Z,6.18
2023-05-09T01:27:01.455Z,7.13
2023-05-09T01:29:36.622Z,6.50
2023-05-09T01:32:09.672Z,6.57
2023-05-09T01:34:41.025Z,5.82
2023-05-09T01:37:09.638Z,6.53
2023-05-09T01:39:41.319Z,6.50
2023-05-09T01:42:11.114Z,6.43
2023-05-09T01:44:41.169Z,6.22
2023-05-09T01:47:09.487Z,6.47
2023-05-09T01:49:38.383Z,6.07
2023-05-09T01:52:08.683Z,5.90
2023-05-09T01:54:37.214Z,6.05
2023-05-09T01:57:06.231Z,6.50
2023-05-09T01:59:34.762Z,6.40
2023-05-09T02:02:03.701Z,6.18
2023-05-09T02:04:31.577Z,6.40
2023-05-09T02:06:59.651Z,5.78
2023-05-09T02:09:27.299Z,6.28
2023-05-09T02:11:55.032Z,6.30
2023-05-09T02:14:22.158Z,6.20
2023-05-09T02:16:50.054Z,6.40
2023-05-09T02:19:17.520Z,6.20
2023-05-09T02:21:44.524Z,6.15
2023-05-09T02:24:11.747Z,6.15
2023-05-09T02:26:39.885Z,6.05
2023-05-09T02:29:08.223Z,6.10
2023-05-09T02:31:36.197Z,6.30
2023-05-09T02:34:04.986Z,6.75
2023-05-09T02:36:32.746Z,6.55
2023-05-09T02:39:01.303Z,6.72
2023-05-09T02:41:30.825Z,6.93
2023-05-09T02:43:57.785Z,6.30
2023-05-09T02:46:26.234Z,6.28
2023-05-09T02:48:53.692Z,6.93
2023-05-09T02:51:20.588Z,7.43
2023-05-09T02:53:47.511Z,6.80
2023-05-09T02:56:14.528Z,6.95
2023-05-09T02:58:41.475Z,6.82
2023-05-09T03:01:08.450Z,6.75
2023-05-09T03:03:35.525Z,6.82
2023-05-09T03:06:04.678Z,6.75
2023-05-09T03:08:31.783Z,7.55
2023-05-09T03:10:59.038Z,7.03
2023-05-09T03:13:26.372Z,7.25
2023-05-09T03:15:53.435Z,7.15
2023-05-09T03:18:20.445Z,7.20
2023-05-09T03:20:47.401Z,7.55
2023-05-09T03:23:14.941Z,7.70
2023-05-09T03:25:41.848Z,7.60
2023-05-09T03:28:08.813Z,7.30
2023-05-09T03:30:36.666Z,7.75
2023-05-09T03:33:06.344Z,8.05
2023-05-09T03:35:33.378Z,7.93
2023-05-09T03:38:00.628Z,8.45
2023-05-09T03:40:27.653Z,7.90
2023-05-09T03:43:05.047Z,8.35
2023-05-09T03:45:32.416Z,8.30
2023-05-09T03:47:59.430Z,8.30
2023-05-09T03:50:26.354Z,9.55
2023-05-09T03:52:57.072Z,8.63
2023-05-09T03:55:24.180Z,8.80
2023-05-09T03:57:51.245Z,9.25
2023-05-09T04:00:18.815Z,8.82
2023-05-09T04:02:53.502Z,10.40
2023-05-09T04:05:30.054Z,10.25
2023-05-09T04:07:58.112Z,10.43
2023-05-09T04:10:25.734Z,9.68
2023-05-09T04:12:54.047Z,10.20
2023-05-09T04:15:20.983Z,9.57
2023-05-09T04:17:48.008Z,9.68
2023-05-09T04:20:15.389Z,9.85
2023-05-09T04:22:44.842Z,9.98
2023-05-09T04:25:14.545Z,9.43
2023-05-09T04:27:42.291Z,10.45
2023-05-09T04:30:10.382Z,9.23
2023-05-09T04:32:38.666Z,9.68
2023-05-09T04:35:08.233Z,9.45
2023-05-09T04:37:40.078Z,10.02
2023-05-09T04:40:09.093Z,9.82
2023-05-09T04:42:48.317Z,10.05
2023-05-09T04:45:15.862Z,9.43
2023-05-09T04:47:43.244Z,9.18
2023-05-09T04:50:10.681Z,8.43
2023-05-09T04:52:37.585Z,8.82
2023-05-09T04:55:04.999Z,8.65
2023-05-09T04:57:36.866Z,8.25
2023-05-09T05:00:07.381Z,8.95
2023-05-09T05:02:35.331Z,8.95
2023-05-09T05:05:10.698Z,8.63
2023-05-09T05:07:40.521Z,8.60
2023-05-09T05:10:08.437Z,7.60
2023-05-09T05:12:36.407Z,8.10
2023-05-09T05:15:05.835Z,7.65
2023-05-09T05:17:33.392Z,7.50
2023-05-09T05:20:03.218Z,6.72
2023-05-09T05:22:32.797Z,7.65
2023-05-09T05:25:00.062Z,7.75
2023-05-09T05:27:27.400Z,7.68
2023-05-09T05:29:54.609Z,8.50
2023-05-09T05:32:21.663Z,7.72
2023-05-09T05:34:48.719Z,7.10
2023-05-09T05:37:15.839Z,6.05
2023-05-09T05:39:42.800Z,6.53
2023-05-09T05:42:09.788Z,7.40
2023-05-09T05:44:37.217Z,7.70
2023-05-09T05:47:04.456Z,7.10
2023-05-09T05:49:31.742Z,7.15
2023-05-09T05:51:58.956Z,7.93
2023-05-09T05:54:26.635Z,7.53
2023-05-09T05:56:54.728Z,7.88
2023-05-09T05:59:22.320Z,6.47
2023-05-09T06:01:49.372Z,7.55
2023-05-09T06:04:17.001Z,7.13
2023-05-09T06:06:44.244Z,7.43
2023-05-09T06:09:11.373Z,7.97
2023-05-09T06:11:39.148Z,7.63
2023-05-09T06:14:06.299Z,7.45
2023-05-09T06:16:33.487Z,7.60
2023-05-09T06:19:00.515Z,7.20
2023-05-09T06:21:27.525Z,8.00
2023-05-09T06:26:24.389Z,8.15
2023-05-09T06:28:51.332Z,7.78
2023-05-09T06:31:18.414Z,17.30
2023-05-09T06:33:45.385Z,17.77
2023-05-09T06:36:12.485Z,7.82
2023-05-09T06:38:39.480Z,7.45
2023-05-09T06:41:06.582Z,7.20
2023-05-09T06:43:33.677Z,7.30
2023-05-09T06:46:00.659Z,7.00
2023-05-09T06:48:27.702Z,6.35
2023-05-09T06:50:54.712Z,7.10
2023-05-09T06:53:21.812Z,7.10
2023-05-09T06:55:48.811Z,7.55
2023-05-09T06:58:15.853Z,7.43
2023-05-09T07:00:42.826Z,7.35
2023-05-09T07:03:10.612Z,6.53
2023-05-09T07:05:37.508Z,6.85
2023-05-09T07:08:04.810Z,6.63
2023-05-09T07:10:32.070Z,6.60
2023-05-09T07:12:59.085Z,6.32
2023-05-09T07:15:39.925Z,6.50
2023-05-09T07:18:08.535Z,6.70
2023-05-09T07:20:35.598Z,6.53
2023-05-09T07:23:06.023Z,6.63
2023-05-09T07:25:33.113Z,6.72
2023-05-09T07:28:00.028Z,6.32
2023-05-09T07:30:27.146Z,5.97
2023-05-09T07:33:04.853Z,6.53
2023-05-09T07:35:31.839Z,6.30
2023-05-09T07:37:58.725Z,5.90
2023-05-09T07:40:25.676Z,6.43
2023-05-09T07:42:55.076Z,6.72
2023-05-09T07:45:23.668Z,6.60
2023-05-09T07:47:51.093Z,6.43
2023-05-09T07:50:18.227Z,6.65
2023-05-09T07:52:45.551Z,7.18
2023-05-09T07:55:12.614Z,6.90
2023-05-09T07:57:40.089Z,6.88
2023-05-09T08:00:08.860Z,6.25
2023-05-09T08:02:40.737Z,5.80
2023-05-09T08:05:08.642Z,8.15
2023-05-09T08:07:35.712Z,6.22
2023-05-09T08:10:03.224Z,5.90
2023-05-09T08:12:30.119Z,5.63
2023-05-09T08:14:57.044Z,7.18
2023-05-09T08:17:23.948Z,6.10
2023-05-09T08:19:50.972Z,6.32
2023-05-09T08:22:18.984Z,5.72
2023-05-09T08:24:46.774Z,5.00
2023-05-09T08:27:14.384Z,5.32
2023-05-09T08:29:42.027Z,5.65
2023-05-09T08:32:09.500Z,5.65
2023-05-09T08:34:36.550Z,5.55
2023-05-09T08:37:04.721Z,5.15
2023-05-09T08:39:31.833Z,5.22
2023-05-09T08:42:00.561Z,5.65
2023-05-09T08:44:29.461Z,5.70
2023-05-09T08:46:59.760Z,6.28
2023-05-09T08:49:27.585Z,5.63
2023-05-09T08:51:55.528Z,10.45
2023-05-09T08:54:29.989Z,6.45
2023-05-09T08:56:57.890Z,5.68
2023-05-09T08:59:27.154Z,5.80
2023-05-09T09:01:54.759Z,5.53
2023-05-09T09:04:23.075Z,5.05
2023-05-09T09:06:51.516Z,5.57
2023-05-09T09:09:20.284Z,5.78
2023-05-09T09:11:48.033Z,5.60
2023-05-09T09:14:26.447Z,5.50
2023-05-09T09:16:55.950Z,5.47
2023-05-09T09:19:29.800Z,5.50
2023-05-09T09:21:59.614Z,5.72
2023-05-09T09:24:26.653Z,6.15
2023-05-09T09:26:53.623Z,5.88
2023-05-09T09:29:21.249Z,6.15
2023-05-09T09:31:53.052Z,5.82
2023-05-09T09:34:22.928Z,5.78
2023-05-09T09:36:50.483Z,5.97
2023-05-09T09:39:17.527Z,6.05
2023-05-09T09:41:45.062Z,5.50
2023-05-09T09:44:14.366Z,5.25
2023-05-09T09:46:52.266Z,5.90
2023-05-09T09:49:21.396Z,4.93
2023-05-09T09:51:52.100Z,5.20
2023-05-09T09:54:19.362Z,5.47
2023-05-09T09:56:48.108Z,5.53
2023-05-09T09:59:17.393Z,6.03
2023-05-09T10:02:04.858Z,6.45
2023-05-09T10:04:35.408Z,7.13
2023-05-09T10:07:07.748Z,7.22
2023-05-09T10:09:37.946Z,5.28
2023-05-09T10:12:07.439Z,4.60
2023-05-09T10:14:36.452Z,5.78
2023-05-09T10:17:05.639Z,5.75
2023-05-09T10:19:33.553Z,5.22
2023-05-09T10:22:08.212Z,4.70
2023-05-09T10:24:47.788Z,4.63
2023-05-09T10:27:19.292Z,5.20
2023-05-09T10:29:51.607Z,5.65
2023-05-09T10:32:27.071Z,5.90
2023-05-09T10:35:02.095Z,5.95
2023-05-09T10:37:30.602Z,6.10
2023-05-09T10:39:59.996Z,5.72
2023-05-09T10:42:28.394Z,6.50
2023-05-09T10:44:56.340Z,6.25
2023-05-09T10:47:26.974Z,6.05
2023-05-09T10:49:54.831Z,6.72
2023-05-09T10:52:22.786Z,7.10
2023-05-09T10:55:05.262Z,6.85
2023-05-09T10:57:32.554Z,6.53
2023-05-09T11:00:02.911Z,6.47
2023-05-09T11:02:32.236Z,6.18
2023-05-09T11:05:19.187Z,5.93
2023-05-09T11:07:46.315Z,6.70
2023-05-09T11:10:18.526Z,7.65
2023-05-09T11:12:58.272Z,7.85
2023-05-09T11:15:27.484Z,8.20
2023-05-09T11:18:10.737Z,7.93
2023-05-09T11:20:45.071Z,7.03
2023-05-09T11:23:12.369Z,6.70
2023-05-09T11:25:40.294Z,6.93
2023-05-09T11:28:07.279Z,7.30
2023-05-09T11:30:42.558Z,6.93
2023-05-09T11:36:19.152Z,7.88
2023-05-09T11:38:47.570Z,7.55
2023-05-09T11:41:15.606Z,7.60
2023-05-09T11:43:44.716Z,7.82
2023-05-09T11:46:12.890Z,8.25
2023-05-09T11:48:42.239Z,7.50
2023-05-09T11:51:18.113Z,8.55
2023-05-09T11:53:47.059Z,8.27
2023-05-09T11:56:14.707Z,7.40
2023-05-09T11:58:42.253Z,8.40
2023-05-09T12:01:12.385Z,8.43
2023-05-09T12:03:45.996Z,8.52
2023-05-09T12:06:18.260Z,9.13
2023-05-09T12:08:46.297Z,9.68
2023-05-09T12:11:14.080Z,9.90
2023-05-09T12:13:48.851Z,9.07
2023-05-09T12:16:17.119Z,10.27
2023-05-09T12:18:48.832Z,9.02
2023-05-09T12:21:16.567Z,9.82
2023-05-09T12:23:44.274Z,9.73
2023-05-09T12:26:11.577Z,9.07
2023-05-09T12:28:39.232Z,9.35
2023-05-09T12:31:06.989Z,9.40
2023-05-09T12:33:34.587Z,8.15
2023-05-09T12:36:09.532Z,7.63
2023-05-09T12:38:37.161Z,8.07
2023-05-09T12:41:15.490Z,7.10
2023-05-09T12:43:50.855Z,6.50
2023-05-09T12:46:20.047Z,5.85
2023-05-09T12:48:49.919Z,6.38
2023-05-09T12:51:21.040Z,6.70
2023-05-09T12:53:48.481Z,7.03
2023-05-09T12:56:20.469Z,6.78
2023-05-09T12:58:55.496Z,6.40
2023-05-09T13:01:29.724Z,8.40
2023-05-09T13:04:04.259Z,8.60
2023-05-09T13:06:31.306Z,8.45
2023-05-09T13:09:02.883Z,8.65
2023-05-09T13:11:30.191Z,8.45
2023-05-09T13:13:57.512Z,7.43
2023-05-09T13:16:24.805Z,7.18
2023-05-09T13:18:51.843Z,8.48
2023-05-09T13:21:19.351Z,7.43
2023-05-09T13:23:46.276Z,9.18
2023-05-09T13:26:13.306Z,10.00
2023-05-09T13:28:40.516Z,10.75
2023-05-09T13:31:08.059Z,11.48
2023-05-09T13:33:35.176Z,12.18
2023-05-09T13:36:02.164Z,14.45
2023-05-09T13:38:31.025Z,22.40
2023-05-09T13:40:58.365Z,12.27
2023-05-09T13:43:25.444Z,11.90
2023-05-09T13:45:52.431Z,12.27
2023-05-09T13:48:19.406Z,10.93
2023-05-09T13:50:46.843Z,11.25
2023-05-09T13:53:13.831Z,11.20
2023-05-09T13:55:40.804Z,11.98
2023-05-09T13:58:07.751Z,10.77
2023-05-09T14:00:35.043Z,11.63
2023-05-09T14:03:03.123Z,11.38
2023-05-09T14:05:33.963Z,11.18
2023-05-09T14:08:03.871Z,11.07
2023-05-09T14:10:30.768Z,10.90
2023-05-09T14:12:58.181Z,10.25
2023-05-09T14:15:25.202Z,9.27
2023-05-09T14:17:52.246Z,10.10
2023-05-09T14:20:19.386Z,10.07
2023-05-09T14:22:46.549Z,10.27
2023-05-09T14:25:13.470Z,9.60
2023-05-09T14:27:40.388Z,9.50
2023-05-09T14:30:08.661Z,10.48
2023-05-09T14:32:35.673Z,10.95
2023-05-09T14:35:02.881Z,10.60
2023-05-09T14:37:30.597Z,11.73
2023-05-09T14:39:57.621Z,10.70
2023-05-09T14:42:24.542Z,10.25
2023-05-09T14:44:51.512Z,10.45
2023-05-09T14:47:18.423Z,11.07
2023-05-09T14:49:45.420Z,11.55
2023-05-09T14:52:13.746Z,20.95
2023-05-09T14:54:41.062Z,10.07
2023-05-09T14:57:08.404Z,8.70
2023-05-09T14:59:37.020Z,8.82
2023-05-09T15:02:04.231Z,8.43
2023-05-09T15:04:31.641Z,9.07
2023-05-09T15:06:59.350Z,9.35
2023-05-09T15:09:26.806Z,9.80
2023-05-09T15:11:54.856Z,9.98
2023-05-09T15:14:22.047Z,9.23
2023-05-09T15:17:07.881Z,9.38
2023-05-09T15:19:36.386Z,9.77
2023-05-09T15:22:04.753Z,9.82
2023-05-09T15:24:31.866Z,9.38
2023-05-09T15:26:59.026Z,10.35
2023-05-09T15:29:26.252Z,8.93
2023-05-09T15:31:55.099Z,9.63
2023-05-09T15:34:22.821Z,9.43
2023-05-09T15:36:49.956Z,10.25
2023-05-09T15:39:17.223Z,9.18
2023-05-09T15:41:44.145Z,14.02
2023-05-09T15:44:11.595Z,11.40
2023-05-09T15:46:38.553Z,10.40
2023-05-09T15:49:05.521Z,10.15
2023-05-09T15:51:32.605Z,9.75
2023-05-09T15:53:59.957Z,9.27
2023-05-09T15:56:26.902Z,9.02
2023-05-09T15:58:53.921Z,9.43
2023-05-09T16:01:21.293Z,11.18
2023-05-09T16:03:48.403Z,10.48
2023-05-09T16:06:15.545Z,10.45
2023-05-09T16:08:42.561Z,9.95
2023-05-09T16:11:10.242Z,11.95
2023-05-09T16:13:37.394Z,11.20
2023-05-09T16:16:04.983Z,11.60
2023-05-09T16:18:31.978Z,11.40
2023-05-09T16:20:59.649Z,11.98
2023-05-09T16:23:26.741Z,12.68
2023-05-09T16:25:53.832Z,10.90
2023-05-09T16:28:23.470Z,12.18
2023-05-09T16:30:53.917Z,11.93
2023-05-09T16:33:20.938Z,11.48
2023-05-09T16:35:48.006Z,12.07
2023-05-09T16:38:15.134Z,12.20
2023-05-09T16:40:42.213Z,12.60
2023-05-09T16:43:09.220Z,12.63
2023-05-09T16:45:36.249Z,10.80
2023-05-09T16:48:03.243Z,13.38
2023-05-09T16:50:30.317Z,12.75
2023-05-09T16:52:57.298Z,12.07
2023-05-09T16:55:26.693Z,12.45
2023-05-09T16:57:53.613Z,12.23
2023-05-09T17:00:21.767Z,11.95
2023-05-09T17:02:48.760Z,12.05
2023-05-09T17:05:15.767Z,24.98
2023-05-09T17:07:42.738Z,18.40
2023-05-09T17:10:10.138Z,12.43
2023-05-09T17:12:38.810Z,12.75
2023-05-09T17:15:09.882Z,12.32
2023-05-09T17:17:37.339Z,11.52
2023-05-09T17:20:04.623Z,12.25
2023-05-09T17:22:32.035Z,11.20
2023-05-09T17:24:59.074Z,11.10
2023-05-09T17:27:27.053Z,10.90
2023-05-09T17:29:54.063Z,10.30
2023-05-09T17:32:44.716Z,10.65
2023-05-09T17:35:12.448Z,11.00
2023-05-09T17:37:39.627Z,11.18
2023-05-09T17:40:07.936Z,11.45
2023-05-09T17:42:34.952Z,11.98
2023-05-09T17:45:01.974Z,11.50
2023-05-09T17:47:29.255Z,11.65
2023-05-09T17:49:56.222Z,12.20
2023-05-09T17:52:23.195Z,13.60
2023-05-09T17:54:50.123Z,12.93
2023-05-09T17:57:17.490Z,12.52
2023-05-09T17:59:46.198Z,12.10
2023-05-09T18:02:15.007Z,13.05
2023-05-09T18:04:41.952Z,12.77
2023-05-09T18:07:09.004Z,14.00
2023-05-09T18:09:36.013Z,12.00
2023-05-09T18:12:03.551Z,12.93
2023-05-09T18:14:30.473Z,13.98
2023-05-09T18:16:57.407Z,13.25
2023-05-09T18:19:24.308Z,14.65
2023-05-09T18:21:51.252Z,13.70
2023-05-09T18:24:20.450Z,13.20
2023-05-09T18:26:50.303Z,13.43
2023-05-09T18:29:17.415Z,13.65
2023-05-09T18:31:44.450Z,12.68
2023-05-09T18:34:11.675Z,13.57
2023-05-09T18:36:38.615Z,14.25
2023-05-09T18:39:05.572Z,14.00
2023-05-09T18:41:33.874Z,14.43
2023-05-09T18:44:00.978Z,14.23
2023-05-09T18:46:29.931Z,14.77
2023-05-09T18:48:57.060Z,14.23
2023-05-09T18:51:25.280Z,15.35
2023-05-09T18:53:52.408Z,14.60
2023-05-09T18:56:22.126Z,14.50
2023-05-09T18:58:52.390Z,15.05
2023-05-09T19:01:19.593Z,15.25
2023-05-09T19:03:47.587Z,13.27
2023-05-09T19:06:16.469Z,14.07
2023-05-09T19:08:43.778Z,15.80
2023-05-09T19:11:11.724Z,16.65
2023-05-09T19:13:40.801Z,15.13
2023-05-09T19:16:08.837Z,13.45
2023-05-09T19:18:35.908Z,14.50
2023-05-09T19:21:02.926Z,14.20
2023-05-09T19:23:30.002Z,14.75
2023-05-09T19:25:56.981Z,14.50
2023-05-09T19:28:23.976Z,14.40
2023-05-09T19:30:51.031Z,14.45
2023-05-09T19:33:19.411Z,13.65
2023-05-09T19:35:46.615Z,12.32
2023-05-09T19:38:13.588Z,12.73
2023-05-09T19:40:42.054Z,12.60
2023-05-09T19:43:08.975Z,11.85
2023-05-09T19:45:35.907Z,12.05
2023-05-09T19:48:02.862Z,13.18
2023-05-09T19:50:31.004Z,12.30
2023-05-09T19:52:58.442Z,11.70
2023-05-09T19:55:25.552Z,11.82
2023-05-09T19:57:52.437Z,11.02
2023-05-09T20:00:19.708Z,12.15
2023-05-09T20:02:47.143Z,11.43
2023-05-09T20:05:14.153Z,11.77
2023-05-09T20:07:41.213Z,12.18
2023-05-09T20:10:08.504Z,11.85
2023-05-09T20:12:35.851Z,12.18
2023-05-09T20:15:03.025Z,10.80
2023-05-09T20:17:29.997Z,11.07
2023-05-09T20:19:57.480Z,11.23
2023-05-09T20:22:24.406Z,11.18
2023-05-09T20:24:51.259Z,11.43
2023-05-09T20:27:18.120Z,9.95
2023-05-09T20:29:45.245Z,10.75
2023-05-09T20:32:12.249Z,10.57
2023-05-09T20:34:39.224Z,10.50
2023-05-09T20:37:06.112Z,11.18
2023-05-09T20:39:32.967Z,11.10
2023-05-09T20:42:02.404Z,10.15
2023-05-09T20:44:29.564Z,10.88
2023-05-09T20:46:56.440Z,10.55
2023-05-09T20:49:24.209Z,10.23
2023-05-09T20:51:51.110Z,11.13
2023-05-09T20:54:18.164Z,10.05
2023-05-09T20:56:45.016Z,10.20
2023-05-09T20:59:12.145Z,10.13
2023-05-09T21:01:40.389Z,10.07
2023-05-09T21:04:08.420Z,9.48
2023-05-09T21:06:36.358Z,9.63
2023-05-09T21:09:03.961Z,10.57
2023-05-09T21:11:30.940Z,10.60
2023-05-09T21:13:57.815Z,10.68
2023-05-09T21:16:24.673Z,11.23
2023-05-09T21:19:10.265Z,10.43
2023-05-09T21:21:37.302Z,10.98
2023-05-09T21:24:08.894Z,11.20
2023-05-09T21:26:36.385Z,10.50
2023-05-09T21:29:03.313Z,10.63
2023-05-09T21:31:30.235Z,10.38
2023-05-09T21:33:59.055Z,10.95
2023-05-09T21:36:25.970Z,11.30
2023-05-09T21:38:52.891Z,10.65
2023-05-09T21:41:21.924Z,10.93
2023-05-09T21:43:48.936Z,10.07
2023-05-09T21:46:15.841Z,10.88
2023-05-09T21:48:42.709Z,10.60
2023-05-09T21:51:09.553Z,9.98
2023-05-09T21:53:36.648Z,10.82
2023-05-09T21:56:03.726Z,9.68
2023-05-09T21:58:30.669Z,10.48
2023-05-09T22:00:57.600Z,10.85
2023-05-09T22:03:24.697Z,9.77
2023-05-09T22:05:51.622Z,9.98
2023-05-09T22:08:18.489Z,9.02
2023-05-09T22:10:45.377Z,9.73
2023-05-09T22:13:12.296Z,9.77
2023-05-09T22:15:39.217Z,9.18
2023-05-09T22:18:06.205Z,9.68
2023-05-09T22:20:33.133Z,8.90
2023-05-09T22:23:00.204Z,9.27
2023-05-09T22:25:27.096Z,9.65
2023-05-09T22:27:55.057Z,11.23
2023-05-09T22:30:21.987Z,10.55
2023-05-09T22:32:48.899Z,10.70
2023-05-09T22:35:15.864Z,10.93
2023-05-09T22:37:43.036Z,11.02
2023-05-09T22:40:10.298Z,11.48
2023-05-09T22:42:37.425Z,11.50
2023-05-09T22:45:05.272Z,10.10
2023-05-09T22:47:32.538Z,11.40
2023-05-09T22:49:59.581Z,11.32
2023-05-09T22:52:26.734Z,11.65
2023-05-09T22:54:53.720Z,12.25
2023-05-09T22:57:23.632Z,12.10
2023-05-09T22:59:51.132Z,12.27
2023-05-09T23:02:18.231Z,12.48
2023-05-09T23:04:45.365Z,11.48
2023-05-09T23:07:12.437Z,13.05
2023-05-09T23:09:39.396Z,12.30
2023-05-09T23:12:07.004Z,13.52
2023-05-09T23:14:33.922Z,13.60
2023-05-09T23:17:00.879Z,13.02
2023-05-09T23:19:27.835Z,13.32
2023-05-09T23:21:54.792Z,15.35
2023-05-09T23:24:21.782Z,14.90
2023-05-09T23:26:48.650Z,14.13
2023-05-09T23:29:15.671Z,14.38
2023-05-09T23:31:43.366Z,14.77
2023-05-09T23:34:10.355Z,14.90
2023-05-09T23:36:37.283Z,14.13
2023-05-09T23:39:04.352Z,14.18
2023-05-09T23:41:31.273Z,16.08
2023-05-09T23:43:59.410Z,15.93
2023-05-09T23:46:27.182Z,16.90
2023-05-09T23:48:54.136Z,16.20
2023-05-09T23:51:22.530Z,16.08
2023-05-09T23:53:49.769Z,16.38
2023-05-09T23:56:16.801Z,15.70
2023-05-09T23:58:43.765Z,15.77
